ΕΜΥ, Εθνική Μετεωρολογική Υπηρεσία - Δελτία Καιρού, Προγνώσεις

ΑΕΡΟΝΑΥΤΙΛΙΑ

GREEK AIRPORTS CODES

LGSY 190550Z 05005KT 9999 FEW030 25/20 Q1012 RMK FEW100 BKN200=

EUROPEAN AIRPORTS CODES

EHAM 190555Z 23007KT 190V260 CAVOK 20/16 Q1007 TEMPO FM064524020G32KT 3000 TSRA BKN050CB=